sensor_id;sensor_type;location;lat;lon;timestamp;temperature;humidity
23713;DHT22;12035;49.978;8.298;2023-05-29T00:01:39;23.30;36.10
23713;DHT22;12035;49.978;8.298;2023-05-29T00:06:36;23.20;36.30
23713;DHT22;12035;49.978;8.298;2023-05-29T00:11:34;23.10;36.50
23713;DHT22;12035;49.978;8.298;2023-05-29T00:16:31;23.00;36.60
23713;DHT22;12035;49.978;8.298;2023-05-29T00:21:30;22.90;36.60
23713;DHT22;12035;49.978;8.298;2023-05-29T00:26:27;22.90;36.70
23713;DHT22;12035;49.978;8.298;2023-05-29T00:31:25;22.90;36.90
23713;DHT22;12035;49.978;8.298;2023-05-29T00:36:23;22.80;36.90
23713;DHT22;12035;49.978;8.298;2023-05-29T00:41:21;22.70;36.90
23713;DHT22;12035;49.978;8.298;2023-05-29T00:46:18;22.70;37.00
23713;DHT22;12035;49.978;8.298;2023-05-29T00:51:17;22.60;37.00
23713;DHT22;12035;49.978;8.298;2023-05-29T00:56:15;22.60;37.10
23713;DHT22;12035;49.978;8.298;2023-05-29T01:01:12;22.60;37.10
23713;DHT22;12035;49.978;8.298;2023-05-29T01:06:09;22.60;37.10
23713;DHT22;12035;49.978;8.298;2023-05-29T01:11:17;22.60;37.20
23713;DHT22;12035;49.978;8.298;2023-05-29T01:16:23;22.60;37.40
23713;DHT22;12035;49.978;8.298;2023-05-29T01:21:27;22.60;37.40
23713;DHT22;12035;49.978;8.298;2023-05-29T01:26:47;22.60;37.40
23713;DHT22;12035;49.978;8.298;2023-05-29T01:31:47;22.60;37.40
23713;DHT22;12035;49.978;8.298;2023-05-29T01:36:45;22.50;37.30
23713;DHT22;12035;49.978;8.298;2023-05-29T01:41:45;22.50;37.30
23713;DHT22;12035;49.978;8.298;2023-05-29T01:46:42;22.40;37.50
23713;DHT22;12035;49.978;8.298;2023-05-29T01:51:41;22.40;37.40
23713;DHT22;12035;49.978;8.298;2023-05-29T01:56:38;22.40;37.50
23713;DHT22;12035;49.978;8.298;2023-05-29T02:01:38;22.40;37.50
23713;DHT22;12035;49.978;8.298;2023-05-29T02:06:36;22.30;37.80
23713;DHT22;12035;49.978;8.298;2023-05-29T02:11:33;22.30;37.80
23713;DHT22;12035;49.978;8.298;2023-05-29T02:16:30;22.30;37.90
23713;DHT22;12035;49.978;8.298;2023-05-29T02:21:30;22.20;38.00
23713;DHT22;12035;49.978;8.298;2023-05-29T02:26:27;22.10;38.10
23713;DHT22;12035;49.978;8.298;2023-05-29T02:31:24;22.10;38.10
23713;DHT22;12035;49.978;8.298;2023-05-29T02:36:21;22.00;38.10
23713;DHT22;12035;49.978;8.298;2023-05-29T02:41:19;22.00;38.10
23713;DHT22;12035;49.978;8.298;2023-05-29T02:46:16;21.90;38.30
23713;DHT22;12035;49.978;8.298;2023-05-29T02:51:13;21.90;38.40
23713;DHT22;12035;49.978;8.298;2023-05-29T02:56:11;21.80;38.50
23713;DHT22;12035;49.978;8.298;2023-05-29T03:01:09;21.80;39.30
23713;DHT22;12035;49.978;8.298;2023-05-29T03:06:06;21.70;39.40
23713;DHT22;12035;49.978;8.298;2023-05-29T03:11:05;21.70;39.50
23713;DHT22;12035;49.978;8.298;2023-05-29T03:16:02;21.60;39.10
23713;DHT22;12035;49.978;8.298;2023-05-29T03:21:01;21.60;39.20
23713;DHT22;12035;49.978;8.298;2023-05-29T03:25:58;21.50;39.20
23713;DHT22;12035;49.978;8.298;2023-05-29T03:30:55;21.40;39.30
23713;DHT22;12035;49.978;8.298;2023-05-29T03:35:53;21.40;39.50
23713;DHT22;12035;49.978;8.298;2023-05-29T03:40:52;21.30;39.70
23713;DHT22;12035;49.978;8.298;2023-05-29T03:45:49;21.30;40.20
23713;DHT22;12035;49.978;8.298;2023-05-29T03:50:46;21.30;40.30
23713;DHT22;12035;49.978;8.298;2023-05-29T03:55:44;21.30;40.40
23713;DHT22;12035;49.978;8.298;2023-05-29T04:00:43;21.30;40.40
23713;DHT22;12035;49.978;8.298;2023-05-29T04:05:40;21.40;40.70
23713;DHT22;12035;49.978;8.298;2023-05-29T04:10:37;21.50;40.70
23713;DHT22;12035;49.978;8.298;2023-05-29T04:15:34;21.70;40.80
23713;DHT22;12035;49.978;8.298;2023-05-29T04:20:33;22.00;40.90
23713;DHT22;12035;49.978;8.298;2023-05-29T04:25:30;22.40;40.90
23713;DHT22;12035;49.978;8.298;2023-05-29T04:30:27;22.70;40.80
23713;DHT22;12035;49.978;8.298;2023-05-29T04:35:25;23.00;40.60
23713;DHT22;12035;49.978;8.298;2023-05-29T04:40:25;23.50;40.50
23713;DHT22;12035;49.978;8.298;2023-05-29T04:45:23;24.00;40.10
23713;DHT22;12035;49.978;8.298;2023-05-29T04:50:22;24.50;39.80
23713;DHT22;12035;49.978;8.298;2023-05-29T04:55:20;25.00;39.40
23713;DHT22;12035;49.978;8.298;2023-05-29T05:00:20;25.70;39.30
23713;DHT22;12035;49.978;8.298;2023-05-29T05:05:17;26.30;38.30
23713;DHT22;12035;49.978;8.298;2023-05-29T05:10:15;26.80;37.50
23713;DHT22;12035;49.978;8.298;2023-05-29T05:15:12;27.20;37.00
23713;DHT22;12035;49.978;8.298;2023-05-29T05:20:12;27.80;37.00
23713;DHT22;12035;49.978;8.298;2023-05-29T05:25:09;28.40;36.90
23713;DHT22;12035;49.978;8.298;2023-05-29T05:30:08;29.10;36.70
23713;DHT22;12035;49.978;8.298;2023-05-29T05:35:05;29.90;35.50
23713;DHT22;12035;49.978;8.298;2023-05-29T05:40:06;30.60;34.70
23713;DHT22;12035;49.978;8.298;2023-05-29T05:45:05;31.40;34.20
23713;DHT22;12035;49.978;8.298;2023-05-29T05:50:03;31.90;33.30
23713;DHT22;12035;49.978;8.298;2023-05-29T05:55:01;32.40;32.00
23713;DHT22;12035;49.978;8.298;2023-05-29T06:00:00;32.70;31.60
23713;DHT22;12035;49.978;8.298;2023-05-29T06:05:01;33.00;31.80
23713;DHT22;12035;49.978;8.298;2023-05-29T06:09:59;33.40;30.70
23713;DHT22;12035;49.978;8.298;2023-05-29T06:14:56;33.40;30.00
23713;DHT22;12035;49.978;8.298;2023-05-29T06:19:54;33.40;29.60
23713;DHT22;12035;49.978;8.298;2023-05-29T06:24:52;33.10;29.20
23713;DHT22;12035;49.978;8.298;2023-05-29T06:29:49;32.80;29.20
23713;DHT22;12035;49.978;8.298;2023-05-29T06:34:46;32.60;29.60
23713;DHT22;12035;49.978;8.298;2023-05-29T06:39:46;32.50;29.90
23713;DHT22;12035;49.978;8.298;2023-05-29T06:44:43;32.50;29.30
23713;DHT22;12035;49.978;8.298;2023-05-29T06:49:40;32.10;28.90
23713;DHT22;12035;49.978;8.298;2023-05-29T06:54:37;31.60;29.30
23713;DHT22;12035;49.978;8.298;2023-05-29T06:59:35;31.10;29.70
23713;DHT22;12035;49.978;8.298;2023-05-29T07:04:32;30.80;30.00
23713;DHT22;12035;49.978;8.298;2023-05-29T07:09:29;30.60;30.10
23713;DHT22;12035;49.978;8.298;2023-05-29T07:14:26;30.50;30.30
23713;DHT22;12035;49.978;8.298;2023-05-29T07:19:25;30.30;30.50
23713;DHT22;12035;49.978;8.298;2023-05-29T07:24:22;30.10;30.90
23713;DHT22;12035;49.978;8.298;2023-05-29T07:29:19;30.30;31.10
23713;DHT22;12035;49.978;8.298;2023-05-29T07:34:18;30.40;30.70
23713;DHT22;12035;49.978;8.298;2023-05-29T07:39:16;30.50;30.60
23713;DHT22;12035;49.978;8.298;2023-05-29T07:44:14;30.70;30.20
23713;DHT22;12035;49.978;8.298;2023-05-29T07:49:11;30.90;29.90
23713;DHT22;12035;49.978;8.298;2023-05-29T07:54:08;30.80;30.00
23713;DHT22;12035;49.978;8.298;2023-05-29T07:59:07;30.60;29.80
23713;DHT22;12035;49.978;8.298;2023-05-29T08:04:04;30.50;29.80
23713;DHT22;12035;49.978;8.298;2023-05-29T08:09:01;30.60;29.90
23713;DHT22;12035;49.978;8.298;2023-05-29T08:13:58;30.60;29.60
23713;DHT22;12035;49.978;8.298;2023-05-29T08:18:57;30.40;29.80
23713;DHT22;12035;49.978;8.298;2023-05-29T08:23:54;30.40;29.90
23713;DHT22;12035;49.978;8.298;2023-05-29T08:28:51;30.30;29.50
23713;DHT22;12035;49.978;8.298;2023-05-29T08:33:49;30.30;29.80
23713;DHT22;12035;49.978;8.298;2023-05-29T08:38:48;30.40;30.10
23713;DHT22;12035;49.978;8.298;2023-05-29T08:43:46;30.40;30.10
23713;DHT22;12035;49.978;8.298;2023-05-29T08:48:47;30.40;29.80
23713;DHT22;12035;49.978;8.298;2023-05-29T08:53:48;30.30;30.10
23713;DHT22;12035;49.978;8.298;2023-05-29T08:58:46;30.20;30.00
23713;DHT22;12035;49.978;8.298;2023-05-29T09:03:43;30.10;30.20
23713;DHT22;12035;49.978;8.298;2023-05-29T09:08:40;29.90;29.50
23713;DHT22;12035;49.978;8.298;2023-05-29T09:13:38;29.80;30.00
23713;DHT22;12035;49.978;8.298;2023-05-29T09:18:36;29.80;29.80
23713;DHT22;12035;49.978;8.298;2023-05-29T09:23:33;29.70;30.10
23713;DHT22;12035;49.978;8.298;2023-05-29T09:28:30;29.60;30.50
23713;DHT22;12035;49.978;8.298;2023-05-29T09:33:29;29.50;30.40
23713;DHT22;12035;49.978;8.298;2023-05-29T09:38:26;29.40;30.70
23713;DHT22;12035;49.978;8.298;2023-05-29T09:43:24;29.20;30.20
23713;DHT22;12035;49.978;8.298;2023-05-29T09:48:22;29.20;30.20
23713;DHT22;12035;49.978;8.298;2023-05-29T09:53:24;29.10;30.60
23713;DHT22;12035;49.978;8.298;2023-05-29T09:58:22;29.00;30.50
23713;DHT22;12035;49.978;8.298;2023-05-29T10:03:20;29.00;30.90
23713;DHT22;12035;49.978;8.298;2023-05-29T10:08:18;29.00;31.40
23713;DHT22;12035;49.978;8.298;2023-05-29T10:13:17;28.90;31.30
23713;DHT22;12035;49.978;8.298;2023-05-29T10:18:20;28.90;31.50
23713;DHT22;12035;49.978;8.298;2023-05-29T10:23:20;29.00;31.30
23713;DHT22;12035;49.978;8.298;2023-05-29T10:28:20;29.10;31.10
23713;DHT22;12035;49.978;8.298;2023-05-29T10:33:36;29.00;30.80
23713;DHT22;12035;49.978;8.298;2023-05-29T10:38:41;29.00;31.50
23713;DHT22;12035;49.978;8.298;2023-05-29T10:43:45;29.10;31.10
23713;DHT22;12035;49.978;8.298;2023-05-29T10:48:43;29.40;30.10
23713;DHT22;12035;49.978;8.298;2023-05-29T10:53:41;29.40;28.90
23713;DHT22;12035;49.978;8.298;2023-05-29T10:58:39;29.60;29.40
23713;DHT22;12035;49.978;8.298;2023-05-29T11:03:39;29.70;29.10
23713;DHT22;12035;49.978;8.298;2023-05-29T11:08:43;29.80;28.90
23713;DHT22;12035;49.978;8.298;2023-05-29T11:13:51;29.80;27.50
23713;DHT22;12035;49.978;8.298;2023-05-29T11:18:54;29.80;27.40
23713;DHT22;12035;49.978;8.298;2023-05-29T11:23:52;29.70;27.50
23713;DHT22;12035;49.978;8.298;2023-05-29T11:28:50;29.50;26.90
23713;DHT22;12035;49.978;8.298;2023-05-29T11:33:48;29.50;27.30
23713;DHT22;12035;49.978;8.298;2023-05-29T11:38:48;29.30;27.50
23713;DHT22;12035;49.978;8.298;2023-05-29T11:43:56;29.10;27.40
23713;DHT22;12035;49.978;8.298;2023-05-29T11:48:55;29.10;27.80
23713;DHT22;12035;49.978;8.298;2023-05-29T11:53:54;29.00;27.70
23713;DHT22;12035;49.978;8.298;2023-05-29T11:58:54;29.00;28.40
23713;DHT22;12035;49.978;8.298;2023-05-29T12:03:53;29.10;28.80
23713;DHT22;12035;49.978;8.298;2023-05-29T12:08:53;29.00;29.00
23713;DHT22;12035;49.978;8.298;2023-05-29T12:13:55;28.90;29.40
23713;DHT22;12035;49.978;8.298;2023-05-29T12:18:53;28.90;29.00
23713;DHT22;12035;49.978;8.298;2023-05-29T12:23:53;28.80;29.20
23713;DHT22;12035;49.978;8.298;2023-05-29T12:28:50;28.90;29.90
23713;DHT22;12035;49.978;8.298;2023-05-29T12:33:48;28.80;29.80
23713;DHT22;12035;49.978;8.298;2023-05-29T12:38:49;28.90;30.40
23713;DHT22;12035;49.978;8.298;2023-05-29T12:43:49;28.80;29.70
23713;DHT22;12035;49.978;8.298;2023-05-29T12:48:46;28.80;30.00
23713;DHT22;12035;49.978;8.298;2023-05-29T12:53:43;28.80;30.00
23713;DHT22;12035;49.978;8.298;2023-05-29T12:58:40;28.70;30.10
23713;DHT22;12035;49.978;8.298;2023-05-29T13:03:38;28.70;30.10
23713;DHT22;12035;49.978;8.298;2023-05-29T13:08:37;28.50;30.00
23713;DHT22;12035;49.978;8.298;2023-05-29T13:13:34;28.50;30.20
23713;DHT22;12035;49.978;8.298;2023-05-29T13:18:31;28.40;30.40
23713;DHT22;12035;49.978;8.298;2023-05-29T13:23:29;28.50;30.20
23713;DHT22;12035;49.978;8.298;2023-05-29T13:28:26;28.60;30.30
23713;DHT22;12035;49.978;8.298;2023-05-29T13:33:23;28.70;30.50
23713;DHT22;12035;49.978;8.298;2023-05-29T13:38:20;28.70;30.20
23713;DHT22;12035;49.978;8.298;2023-05-29T13:43:18;28.60;30.10
23713;DHT22;12035;49.978;8.298;2023-05-29T13:48:16;28.60;29.80
23713;DHT22;12035;49.978;8.298;2023-05-29T13:53:13;28.60;30.10
23713;DHT22;12035;49.978;8.298;2023-05-29T13:58:11;28.60;30.30
23713;DHT22;12035;49.978;8.298;2023-05-29T14:03:09;28.80;30.70
23713;DHT22;12035;49.978;8.298;2023-05-29T14:08:06;29.00;30.50
23713;DHT22;12035;49.978;8.298;2023-05-29T14:13:03;29.00;30.30
23713;DHT22;12035;49.978;8.298;2023-05-29T14:18:00;29.00;29.90
23713;DHT22;12035;49.978;8.298;2023-05-29T14:22:59;29.00;30.40
23713;DHT22;12035;49.978;8.298;2023-05-29T14:27:56;29.00;30.90
23713;DHT22;12035;49.978;8.298;2023-05-29T14:32:53;28.90;31.20
23713;DHT22;12035;49.978;8.298;2023-05-29T14:37:51;28.90;30.80
23713;DHT22;12035;49.978;8.298;2023-05-29T14:42:50;28.90;30.30
23713;DHT22;12035;49.978;8.298;2023-05-29T14:47:47;29.00;30.40
23713;DHT22;12035;49.978;8.298;2023-05-29T14:52:44;29.00;30.00
23713;DHT22;12035;49.978;8.298;2023-05-29T14:57:43;29.10;30.00
23713;DHT22;12035;49.978;8.298;2023-05-29T15:02:41;29.20;30.00
23713;DHT22;12035;49.978;8.298;2023-05-29T15:07:38;29.20;29.80
23713;DHT22;12035;49.978;8.298;2023-05-29T15:12:35;29.20;29.80
23713;DHT22;12035;49.978;8.298;2023-05-29T15:17:33;29.20;29.70
23713;DHT22;12035;49.978;8.298;2023-05-29T15:22:31;29.30;30.00
23713;DHT22;12035;49.978;8.298;2023-05-29T15:27:28;29.30;30.00
23713;DHT22;12035;49.978;8.298;2023-05-29T15:32:26;29.20;30.20
23713;DHT22;12035;49.978;8.298;2023-05-29T15:37:23;29.20;30.20
23713;DHT22;12035;49.978;8.298;2023-05-29T15:42:22;29.20;30.50
23713;DHT22;12035;49.978;8.298;2023-05-29T15:47:19;29.10;30.80
23713;DHT22;12035;49.978;8.298;2023-05-29T15:52:16;29.00;30.80
23713;DHT22;12035;49.978;8.298;2023-05-29T15:57:13;29.00;31.00
23713;DHT22;12035;49.978;8.298;2023-05-29T16:02:11;29.10;31.20
23713;DHT22;12035;49.978;8.298;2023-05-29T16:07:08;29.10;30.80
23713;DHT22;12035;49.978;8.298;2023-05-29T16:12:06;29.10;31.10
23713;DHT22;12035;49.978;8.298;2023-05-29T16:17:05;29.00;32.00
23713;DHT22;12035;49.978;8.298;2023-05-29T16:22:05;29.10;31.40
23713;DHT22;12035;49.978;8.298;2023-05-29T16:27:02;29.00;32.00
23713;DHT22;12035;49.978;8.298;2023-05-29T16:32:00;28.90;31.30
23713;DHT22;12035;49.978;8.298;2023-05-29T16:36:57;28.70;31.20
23713;DHT22;12035;49.978;8.298;2023-05-29T16:41:55;28.60;31.60
23713;DHT22;12035;49.978;8.298;2023-05-29T16:46:52;28.60;31.60
23713;DHT22;12035;49.978;8.298;2023-05-29T16:51:49;28.60;32.10
23713;DHT22;12035;49.978;8.298;2023-05-29T16:56:46;28.50;32.60
23713;DHT22;12035;49.978;8.298;2023-05-29T17:01:47;28.30;32.60
23713;DHT22;12035;49.978;8.298;2023-05-29T17:06:45;28.20;33.30
23713;DHT22;12035;49.978;8.298;2023-05-29T17:11:43;28.10;33.40
23713;DHT22;12035;49.978;8.298;2023-05-29T17:16:40;28.00;33.40
23713;DHT22;12035;49.978;8.298;2023-05-29T17:21:39;28.00;33.60
23713;DHT22;12035;49.978;8.298;2023-05-29T17:26:36;27.80;33.70
23713;DHT22;12035;49.978;8.298;2023-05-29T17:31:33;27.60;33.90
23713;DHT22;12035;49.978;8.298;2023-05-29T17:36:30;27.50;34.00
23713;DHT22;12035;49.978;8.298;2023-05-29T17:41:29;27.40;34.20
23713;DHT22;12035;49.978;8.298;2023-05-29T17:46:26;27.30;34.90
23713;DHT22;12035;49.978;8.298;2023-05-29T17:51:23;27.30;35.00
23713;DHT22;12035;49.978;8.298;2023-05-29T17:56:22;27.20;35.50
23713;DHT22;12035;49.978;8.298;2023-05-29T18:01:20;27.20;35.30
23713;DHT22;12035;49.978;8.298;2023-05-29T18:06:17;27.20;35.50
23713;DHT22;12035;49.978;8.298;2023-05-29T18:11:15;27.10;35.60
23713;DHT22;12035;49.978;8.298;2023-05-29T18:16:12;27.10;35.70
23713;DHT22;12035;49.978;8.298;2023-05-29T18:21:11;27.00;36.10
23713;DHT22;12035;49.978;8.298;2023-05-29T18:26:08;26.80;36.30
23713;DHT22;12035;49.978;8.298;2023-05-29T18:31:05;26.70;36.60
23713;DHT22;12035;49.978;8.298;2023-05-29T18:36:02;26.60;36.80
23713;DHT22;12035;49.978;8.298;2023-05-29T18:41:00;26.50;37.20
23713;DHT22;12035;49.978;8.298;2023-05-29T18:45:58;26.40;37.40
23713;DHT22;12035;49.978;8.298;2023-05-29T18:50:55;26.20;38.00
23713;DHT22;12035;49.978;8.298;2023-05-29T18:55:53;26.10;37.90
23713;DHT22;12035;49.978;8.298;2023-05-29T19:00:51;26.00;38.10
23713;DHT22;12035;49.978;8.298;2023-05-29T19:05:48;26.00;38.20
23713;DHT22;12035;49.978;8.298;2023-05-29T19:10:45;25.90;38.50
23713;DHT22;12035;49.978;8.298;2023-05-29T19:15:43;25.80;38.70
23713;DHT22;12035;49.978;8.298;2023-05-29T19:20:42;25.70;38.70
23713;DHT22;12035;49.978;8.298;2023-05-29T19:25:39;25.60;39.30
23713;DHT22;12035;49.978;8.298;2023-05-29T19:30:36;25.40;39.80
23713;DHT22;12035;49.978;8.298;2023-05-29T19:35:33;25.30;39.80
23713;DHT22;12035;49.978;8.298;2023-05-29T19:40:33;25.10;39.90
23713;DHT22;12035;49.978;8.298;2023-05-29T19:45:31;25.10;40.10
23713;DHT22;12035;49.978;8.298;2023-05-29T19:50:28;25.00;40.30
23713;DHT22;12035;49.978;8.298;2023-05-29T19:55:25;24.90;40.40
23713;DHT22;12035;49.978;8.298;2023-05-29T20:00:23;24.70;40.50
23713;DHT22;12035;49.978;8.298;2023-05-29T20:05:21;24.60;40.70
23713;DHT22;12035;49.978;8.298;2023-05-29T20:10:18;24.50;40.70
23713;DHT22;12035;49.978;8.298;2023-05-29T20:15:15;24.50;40.70
23713;DHT22;12035;49.978;8.298;2023-05-29T20:20:14;24.30;40.80
23713;DHT22;12035;49.978;8.298;2023-05-29T20:25:11;24.20;41.30
23713;DHT22;12035;49.978;8.298;2023-05-29T20:30:09;24.10;41.30
23713;DHT22;12035;49.978;8.298;2023-05-29T20:35:07;23.90;41.60
23713;DHT22;12035;49.978;8.298;2023-05-29T20:40:07;23.80;41.50
23713;DHT22;12035;49.978;8.298;2023-05-29T20:45:06;23.60;41.60
23713;DHT22;12035;49.978;8.298;2023-05-29T20:50:04;23.50;41.70
23713;DHT22;12035;49.978;8.298;2023-05-29T20:55:03;23.40;41.50
23713;DHT22;12035;49.978;8.298;2023-05-29T21:00:02;23.40;41.70
23713;DHT22;12035;49.978;8.298;2023-05-29T21:05:02;23.30;41.70
23713;DHT22;12035;49.978;8.298;2023-05-29T21:09:59;23.20;41.80
23713;DHT22;12035;49.978;8.298;2023-05-29T21:14:56;23.00;42.00
23713;DHT22;12035;49.978;8.298;2023-05-29T21:19:54;22.90;42.10
23713;DHT22;12035;49.978;8.298;2023-05-29T21:24:54;22.80;42.30
23713;DHT22;12035;49.978;8.298;2023-05-29T21:29:51;22.70;42.40
23713;DHT22;12035;49.978;8.298;2023-05-29T21:34:54;22.60;42.50
23713;DHT22;12035;49.978;8.298;2023-05-29T21:39:52;22.60;42.30
23713;DHT22;12035;49.978;8.298;2023-05-29T21:44:50;22.50;42.50
23713;DHT22;12035;49.978;8.298;2023-05-29T21:49:47;22.40;42.40
23713;DHT22;12035;49.978;8.298;2023-05-29T21:54:45;22.30;42.60
23713;DHT22;12035;49.978;8.298;2023-05-29T21:59:42;22.10;42.70
23713;DHT22;12035;49.978;8.298;2023-05-29T22:04:39;22.00;42.80
23713;DHT22;12035;49.978;8.298;2023-05-29T22:09:36;21.90;42.70
23713;DHT22;12035;49.978;8.298;2023-05-29T22:14:35;21.80;42.70
23713;DHT22;12035;49.978;8.298;2023-05-29T22:19:32;21.80;42.70
23713;DHT22;12035;49.978;8.298;2023-05-29T22:24:31;21.70;42.60
23713;DHT22;12035;49.978;8.298;2023-05-29T22:29:27;21.70;42.60
23713;DHT22;12035;49.978;8.298;2023-05-29T22:34:27;21.60;42.70
23713;DHT22;12035;49.978;8.298;2023-05-29T22:39:24;21.60;42.70
23713;DHT22;12035;49.978;8.298;2023-05-29T22:44:22;21.60;42.50
23713;DHT22;12035;49.978;8.298;2023-05-29T22:49:19;21.50;43.00
23713;DHT22;12035;49.978;8.298;2023-05-29T22:54:17;21.50;42.40
23713;DHT22;12035;49.978;8.298;2023-05-29T22:59:15;21.50;42.10
23713;DHT22;12035;49.978;8.298;2023-05-29T23:04:13;21.50;41.90
23713;DHT22;12035;49.978;8.298;2023-05-29T23:09:10;21.50;41.60
23713;DHT22;12035;49.978;8.298;2023-05-29T23:14:09;21.40;41.30
23713;DHT22;12035;49.978;8.298;2023-05-29T23:19:06;21.40;41.20
23713;DHT22;12035;49.978;8.298;2023-05-29T23:24:03;21.40;41.00
23713;DHT22;12035;49.978;8.298;2023-05-29T23:29:00;21.30;40.60
23713;DHT22;12035;49.978;8.298;2023-05-29T23:33:58;21.30;40.20
23713;DHT22;12035;49.978;8.298;2023-05-29T23:38:55;21.20;39.80
23713;DHT22;12035;49.978;8.298;2023-05-29T23:43:52;21.20;39.70
23713;DHT22;12035;49.978;8.298;2023-05-29T23:48:49;21.30;39.50
23713;DHT22;12035;49.978;8.298;2023-05-29T23:53:47;21.30;39.20
23713;DHT22;12035;49.978;8.298;2023-05-29T23:58:44;21.30;38.90
